sensor_id;sensor_type;location;lat;lon;timestamp;temperature;humidity
10644;DHT22;5370;50.132;8.626;2022-12-11T00:01:55;0.50;81.10
10644;DHT22;5370;50.132;8.626;2022-12-11T00:04:22;0.60;81.10
10644;DHT22;5370;50.132;8.626;2022-12-11T00:06:48;0.60;80.90
10644;DHT22;5370;50.132;8.626;2022-12-11T00:09:19;0.60;80.60
10644;DHT22;5370;50.132;8.626;2022-12-11T00:11:45;0.60;80.50
10644;DHT22;5370;50.132;8.626;2022-12-11T00:14:12;0.60;80.50
10644;DHT22;5370;50.132;8.626;2022-12-11T00:16:39;0.60;80.60
10644;DHT22;5370;50.132;8.626;2022-12-11T00:19:05;0.60;80.80
10644;DHT22;5370;50.132;8.626;2022-12-11T00:21:30;0.70;81.00
10644;DHT22;5370;50.132;8.626;2022-12-11T00:23:56;0.80;81.00
10644;DHT22;5370;50.132;8.626;2022-12-11T00:26:22;0.80;80.90
10644;DHT22;5370;50.132;8.626;2022-12-11T00:28:51;0.80;80.60
10644;DHT22;5370;50.132;8.626;2022-12-11T00:31:18;0.90;80.60
10644;DHT22;5370;50.132;8.626;2022-12-11T00:33:45;0.90;80.50
10644;DHT22;5370;50.132;8.626;2022-12-11T00:36:19;0.90;80.50
10644;DHT22;5370;50.132;8.626;2022-12-11T00:38:46;1.00;80.50
10644;DHT22;5370;50.132;8.626;2022-12-11T00:41:13;1.00;80.20
10644;DHT22;5370;50.132;8.626;2022-12-11T00:43:39;1.00;80.10
10644;DHT22;5370;50.132;8.626;2022-12-11T00:46:05;1.00;80.10
10644;DHT22;5370;50.132;8.626;2022-12-11T00:48:30;1.00;80.10
10644;DHT22;5370;50.132;8.626;2022-12-11T00:50:56;1.10;80.20
10644;DHT22;5370;50.132;8.626;2022-12-11T00:53:22;1.10;80.20
10644;DHT22;5370;50.132;8.626;2022-12-11T00:55:47;1.10;80.00
10644;DHT22;5370;50.132;8.626;2022-12-11T00:58:13;1.20;80.00
10644;DHT22;5370;50.132;8.626;2022-12-11T01:00:40;1.20;79.90
10644;DHT22;5370;50.132;8.626;2022-12-11T01:03:06;1.30;79.90
10644;DHT22;5370;50.132;8.626;2022-12-11T01:05:32;1.30;79.70
10644;DHT22;5370;50.132;8.626;2022-12-11T01:07:58;1.30;79.30
10644;DHT22;5370;50.132;8.626;2022-12-11T01:10:24;1.30;79.10
10644;DHT22;5370;50.132;8.626;2022-12-11T01:12:57;1.30;79.10
10644;DHT22;5370;50.132;8.626;2022-12-11T01:15:31;1.30;79.20
10644;DHT22;5370;50.132;8.626;2022-12-11T01:17:58;1.30;79.30
10644;DHT22;5370;50.132;8.626;2022-12-11T01:20:25;1.30;79.00
10644;DHT22;5370;50.132;8.626;2022-12-11T01:22:52;1.20;78.80
10644;DHT22;5370;50.132;8.626;2022-12-11T01:25:18;1.20;78.70
10644;DHT22;5370;50.132;8.626;2022-12-11T01:27:43;1.20;78.40
10644;DHT22;5370;50.132;8.626;2022-12-11T01:30:10;1.10;78.20
10644;DHT22;5370;50.132;8.626;2022-12-11T01:32:35;1.00;78.10
10644;DHT22;5370;50.132;8.626;2022-12-11T01:35:06;1.00;78.10
10644;DHT22;5370;50.132;8.626;2022-12-11T01:37:31;0.90;78.00
10644;DHT22;5370;50.132;8.626;2022-12-11T01:39:57;0.80;77.80
10644;DHT22;5370;50.132;8.626;2022-12-11T01:42:23;0.70;77.90
10644;DHT22;5370;50.132;8.626;2022-12-11T01:47:15;0.70;78.10
10644;DHT22;5370;50.132;8.626;2022-12-11T01:49:41;0.60;78.20
10644;DHT22;5370;50.132;8.626;2022-12-11T01:52:13;0.60;78.40
10644;DHT22;5370;50.132;8.626;2022-12-11T01:54:41;0.60;78.70
10644;DHT22;5370;50.132;8.626;2022-12-11T01:57:08;0.70;79.20
10644;DHT22;5370;50.132;8.626;2022-12-11T01:59:37;0.80;79.50
10644;DHT22;5370;50.132;8.626;2022-12-11T02:02:16;0.80;79.60
10644;DHT22;5370;50.132;8.626;2022-12-11T02:04:43;0.90;79.70
10644;DHT22;5370;50.132;8.626;2022-12-11T02:07:10;1.00;79.80
10644;DHT22;5370;50.132;8.626;2022-12-11T02:09:38;1.10;79.70
10644;DHT22;5370;50.132;8.626;2022-12-11T02:30:36;1.20;78.50
10644;DHT22;5370;50.132;8.626;2022-12-11T02:33:04;1.20;78.30
10644;DHT22;5370;50.132;8.626;2022-12-11T02:35:37;1.10;78.30
10644;DHT22;5370;50.132;8.626;2022-12-11T02:38:27;1.20;78.60
10644;DHT22;5370;50.132;8.626;2022-12-11T02:40:55;1.20;78.50
10644;DHT22;5370;50.132;8.626;2022-12-11T02:43:22;1.30;78.50
10644;DHT22;5370;50.132;8.626;2022-12-11T02:45:50;1.30;78.50
10644;DHT22;5370;50.132;8.626;2022-12-11T02:48:17;1.30;79.10
10644;DHT22;5370;50.132;8.626;2022-12-11T02:50:46;1.30;78.20
10644;DHT22;5370;50.132;8.626;2022-12-11T02:53:16;1.30;78.00
10644;DHT22;5370;50.132;8.626;2022-12-11T02:55:43;1.30;78.00
10644;DHT22;5370;50.132;8.626;2022-12-11T02:58:21;1.20;78.00
10644;DHT22;5370;50.132;8.626;2022-12-11T03:00:47;1.20;78.00
10644;DHT22;5370;50.132;8.626;2022-12-11T03:03:13;1.20;78.00
10644;DHT22;5370;50.132;8.626;2022-12-11T03:05:39;1.20;78.00
10644;DHT22;5370;50.132;8.626;2022-12-11T03:08:06;1.10;78.10
10644;DHT22;5370;50.132;8.626;2022-12-11T03:10:31;1.10;78.20
10644;DHT22;5370;50.132;8.626;2022-12-11T03:12:58;1.10;78.30
10644;DHT22;5370;50.132;8.626;2022-12-11T03:18:16;1.00;78.60
10644;DHT22;5370;50.132;8.626;2022-12-11T03:20:57;1.00;78.80
10644;DHT22;5370;50.132;8.626;2022-12-11T03:23:47;1.00;79.00
10644;DHT22;5370;50.132;8.626;2022-12-11T03:26:14;1.10;80.00
10644;DHT22;5370;50.132;8.626;2022-12-11T03:28:48;1.10;79.40
10644;DHT22;5370;50.132;8.626;2022-12-11T03:31:29;1.10;79.50
10644;DHT22;5370;50.132;8.626;2022-12-11T03:33:59;1.10;79.60
10644;DHT22;5370;50.132;8.626;2022-12-11T03:36:31;1.10;79.60
10644;DHT22;5370;50.132;8.626;2022-12-11T03:39:14;1.10;79.70
10644;DHT22;5370;50.132;8.626;2022-12-11T03:41:41;1.10;79.90
10644;DHT22;5370;50.132;8.626;2022-12-11T03:44:08;1.10;80.10
10644;DHT22;5370;50.132;8.626;2022-12-11T03:46:37;1.20;80.40
10644;DHT22;5370;50.132;8.626;2022-12-11T03:49:12;1.20;80.50
10644;DHT22;5370;50.132;8.626;2022-12-11T03:51:40;1.20;80.70
10644;DHT22;5370;50.132;8.626;2022-12-11T03:54:07;1.30;81.00
10644;DHT22;5370;50.132;8.626;2022-12-11T03:56:34;1.40;81.20
10644;DHT22;5370;50.132;8.626;2022-12-11T03:59:02;1.40;81.20
10644;DHT22;5370;50.132;8.626;2022-12-11T04:01:28;1.50;81.20
10644;DHT22;5370;50.132;8.626;2022-12-11T04:03:53;1.50;81.10
10644;DHT22;5370;50.132;8.626;2022-12-11T04:06:19;1.60;81.20
10644;DHT22;5370;50.132;8.626;2022-12-11T04:08:44;1.60;81.20
10644;DHT22;5370;50.132;8.626;2022-12-11T04:11:10;1.60;81.00
10644;DHT22;5370;50.132;8.626;2022-12-11T04:13:54;1.60;80.80
10644;DHT22;5370;50.132;8.626;2022-12-11T04:16:38;1.60;80.60
10644;DHT22;5370;50.132;8.626;2022-12-11T04:19:04;1.60;80.80
10644;DHT22;5370;50.132;8.626;2022-12-11T04:21:48;1.60;81.00
10644;DHT22;5370;50.132;8.626;2022-12-11T04:24:32;1.60;81.00
10644;DHT22;5370;50.132;8.626;2022-12-11T04:26:58;1.70;81.20
10644;DHT22;5370;50.132;8.626;2022-12-11T04:29:24;1.70;81.20
10644;DHT22;5370;50.132;8.626;2022-12-11T04:31:49;1.80;81.20
10644;DHT22;5370;50.132;8.626;2022-12-11T04:34:15;1.80;81.10
10644;DHT22;5370;50.132;8.626;2022-12-11T04:36:41;1.80;80.90
10644;DHT22;5370;50.132;8.626;2022-12-11T04:39:07;1.90;80.90
10644;DHT22;5370;50.132;8.626;2022-12-11T04:41:32;1.90;81.40
10644;DHT22;5370;50.132;8.626;2022-12-11T04:43:58;1.90;80.60
10644;DHT22;5370;50.132;8.626;2022-12-11T04:46:24;1.90;80.30
10644;DHT22;5370;50.132;8.626;2022-12-11T04:48:50;1.90;80.20
10644;DHT22;5370;50.132;8.626;2022-12-11T04:51:16;1.90;79.90
10644;DHT22;5370;50.132;8.626;2022-12-11T04:53:43;2.00;79.90
10644;DHT22;5370;50.132;8.626;2022-12-11T04:56:10;1.90;79.70
10644;DHT22;5370;50.132;8.626;2022-12-11T04:58:36;1.90;79.50
10644;DHT22;5370;50.132;8.626;2022-12-11T05:01:14;1.90;79.30
10644;DHT22;5370;50.132;8.626;2022-12-11T05:03:41;1.90;79.20
10644;DHT22;5370;50.132;8.626;2022-12-11T05:06:07;1.90;79.00
10644;DHT22;5370;50.132;8.626;2022-12-11T05:08:34;1.90;78.90
10644;DHT22;5370;50.132;8.626;2022-12-11T05:11:04;2.00;78.80
10644;DHT22;5370;50.132;8.626;2022-12-11T05:13:30;1.90;78.40
10644;DHT22;5370;50.132;8.626;2022-12-11T05:15:56;1.90;78.20
10644;DHT22;5370;50.132;8.626;2022-12-11T05:18:23;1.90;78.40
10644;DHT22;5370;50.132;8.626;2022-12-11T05:21:02;1.90;78.50
10644;DHT22;5370;50.132;8.626;2022-12-11T05:23:29;1.80;78.40
10644;DHT22;5370;50.132;8.626;2022-12-11T05:25:59;1.90;78.40
10644;DHT22;5370;50.132;8.626;2022-12-11T05:28:27;1.90;78.40
10644;DHT22;5370;50.132;8.626;2022-12-11T05:31:01;1.90;78.40
10644;DHT22;5370;50.132;8.626;2022-12-11T05:33:28;1.90;78.20
10644;DHT22;5370;50.132;8.626;2022-12-11T05:35:54;1.80;78.10
10644;DHT22;5370;50.132;8.626;2022-12-11T05:38:19;1.80;78.10
10644;DHT22;5370;50.132;8.626;2022-12-11T05:41:00;1.90;78.20
10644;DHT22;5370;50.132;8.626;2022-12-11T05:43:28;1.80;78.10
10644;DHT22;5370;50.132;8.626;2022-12-11T05:45:54;1.80;78.10
10644;DHT22;5370;50.132;8.626;2022-12-11T05:48:19;1.80;78.10
10644;DHT22;5370;50.132;8.626;2022-12-11T05:50:58;1.80;78.00
10644;DHT22;5370;50.132;8.626;2022-12-11T05:53:24;1.80;78.00
10644;DHT22;5370;50.132;8.626;2022-12-11T05:55:51;1.80;78.10
10644;DHT22;5370;50.132;8.626;2022-12-11T05:58:17;1.80;78.10
10644;DHT22;5370;50.132;8.626;2022-12-11T06:00:42;1.70;78.00
10644;DHT22;5370;50.132;8.626;2022-12-11T06:03:08;1.70;78.00
10644;DHT22;5370;50.132;8.626;2022-12-11T06:05:37;1.80;78.10
10644;DHT22;5370;50.132;8.626;2022-12-11T06:08:03;1.70;78.10
10644;DHT22;5370;50.132;8.626;2022-12-11T06:10:29;1.70;78.10
10644;DHT22;5370;50.132;8.626;2022-12-11T06:12:54;1.80;78.30
10644;DHT22;5370;50.132;8.626;2022-12-11T06:15:20;1.80;78.30
10644;DHT22;5370;50.132;8.626;2022-12-11T06:17:46;1.80;78.30
10644;DHT22;5370;50.132;8.626;2022-12-11T06:20:11;1.90;78.30
10644;DHT22;5370;50.132;8.626;2022-12-11T06:22:37;1.90;78.20
10644;DHT22;5370;50.132;8.626;2022-12-11T06:25:03;1.90;78.10
10644;DHT22;5370;50.132;8.626;2022-12-11T06:27:28;1.90;77.90
10644;DHT22;5370;50.132;8.626;2022-12-11T06:29:54;1.90;77.90
10644;DHT22;5370;50.132;8.626;2022-12-11T06:32:20;2.00;77.90
10644;DHT22;5370;50.132;8.626;2022-12-11T06:34:46;2.00;77.70
10644;DHT22;5370;50.132;8.626;2022-12-11T06:37:12;1.90;77.60
10644;DHT22;5370;50.132;8.626;2022-12-11T06:39:37;1.90;77.80
10644;DHT22;5370;50.132;8.626;2022-12-11T06:42:03;1.90;77.80
10644;DHT22;5370;50.132;8.626;2022-12-11T06:44:28;2.00;77.80
10644;DHT22;5370;50.132;8.626;2022-12-11T06:46:54;2.00;77.80
10644;DHT22;5370;50.132;8.626;2022-12-11T06:49:20;2.00;77.70
10644;DHT22;5370;50.132;8.626;2022-12-11T06:51:46;2.00;77.60
10644;DHT22;5370;50.132;8.626;2022-12-11T06:54:11;2.00;77.60
10644;DHT22;5370;50.132;8.626;2022-12-11T06:56:37;2.00;77.50
10644;DHT22;5370;50.132;8.626;2022-12-11T06:59:02;2.00;77.60
10644;DHT22;5370;50.132;8.626;2022-12-11T07:01:28;2.00;77.70
10644;DHT22;5370;50.132;8.626;2022-12-11T07:03:56;2.00;77.80
10644;DHT22;5370;50.132;8.626;2022-12-11T07:06:22;2.10;77.90
10644;DHT22;5370;50.132;8.626;2022-12-11T07:08:48;2.10;77.90
10644;DHT22;5370;50.132;8.626;2022-12-11T07:11:15;2.10;77.80
10644;DHT22;5370;50.132;8.626;2022-12-11T07:13:41;2.10;77.90
10644;DHT22;5370;50.132;8.626;2022-12-11T07:16:07;2.10;77.80
10644;DHT22;5370;50.132;8.626;2022-12-11T07:18:36;2.10;77.80
10644;DHT22;5370;50.132;8.626;2022-12-11T07:21:03;2.10;77.80
10644;DHT22;5370;50.132;8.626;2022-12-11T07:23:29;2.10;77.80
10644;DHT22;5370;50.132;8.626;2022-12-11T07:25:55;2.10;77.80
10644;DHT22;5370;50.132;8.626;2022-12-11T07:28:20;2.10;77.80
10644;DHT22;5370;50.132;8.626;2022-12-11T07:30:46;2.20;78.00
10644;DHT22;5370;50.132;8.626;2022-12-11T07:33:12;2.10;77.90
10644;DHT22;5370;50.132;8.626;2022-12-11T07:35:37;2.10;77.90
10644;DHT22;5370;50.132;8.626;2022-12-11T07:38:03;2.20;78.20
10644;DHT22;5370;50.132;8.626;2022-12-11T07:40:28;2.10;78.20
10644;DHT22;5370;50.132;8.626;2022-12-11T07:42:54;2.20;78.30
10644;DHT22;5370;50.132;8.626;2022-12-11T07:45:19;2.20;78.30
10644;DHT22;5370;50.132;8.626;2022-12-11T07:47:45;2.20;78.10
10644;DHT22;5370;50.132;8.626;2022-12-11T07:50:10;2.20;78.00
10644;DHT22;5370;50.132;8.626;2022-12-11T07:52:36;2.20;78.00
10644;DHT22;5370;50.132;8.626;2022-12-11T07:55:02;2.30;78.10
10644;DHT22;5370;50.132;8.626;2022-12-11T07:57:27;2.30;78.10
10644;DHT22;5370;50.132;8.626;2022-12-11T07:59:53;2.30;78.10
10644;DHT22;5370;50.132;8.626;2022-12-11T08:02:20;2.30;78.10
10644;DHT22;5370;50.132;8.626;2022-12-11T08:04:46;2.30;78.20
10644;DHT22;5370;50.132;8.626;2022-12-11T08:07:12;2.40;78.30
10644;DHT22;5370;50.132;8.626;2022-12-11T08:09:37;2.40;78.30
10644;DHT22;5370;50.132;8.626;2022-12-11T08:12:03;2.40;78.20
10644;DHT22;5370;50.132;8.626;2022-12-11T08:14:29;2.50;78.30
10644;DHT22;5370;50.132;8.626;2022-12-11T08:16:54;2.50;78.20
10644;DHT22;5370;50.132;8.626;2022-12-11T08:19:21;2.50;78.10
10644;DHT22;5370;50.132;8.626;2022-12-11T08:21:47;2.50;78.50
10644;DHT22;5370;50.132;8.626;2022-12-11T08:24:12;2.50;79.10
10644;DHT22;5370;50.132;8.626;2022-12-11T08:26:40;2.60;79.20
10644;DHT22;5370;50.132;8.626;2022-12-11T08:29:06;2.60;79.10
10644;DHT22;5370;50.132;8.626;2022-12-11T08:31:32;2.70;79.60
10644;DHT22;5370;50.132;8.626;2022-12-11T08:33:57;2.70;78.70
10644;DHT22;5370;50.132;8.626;2022-12-11T08:36:24;2.70;78.60
10644;DHT22;5370;50.132;8.626;2022-12-11T08:38:50;2.70;78.50
10644;DHT22;5370;50.132;8.626;2022-12-11T08:41:21;2.80;78.40
10644;DHT22;5370;50.132;8.626;2022-12-11T08:43:47;2.80;78.40
10644;DHT22;5370;50.132;8.626;2022-12-11T08:46:13;2.80;78.30
10644;DHT22;5370;50.132;8.626;2022-12-11T08:48:40;2.90;78.30
10644;DHT22;5370;50.132;8.626;2022-12-11T08:51:08;2.90;78.20
10644;DHT22;5370;50.132;8.626;2022-12-11T08:53:34;3.00;78.10
10644;DHT22;5370;50.132;8.626;2022-12-11T08:58:26;3.10;78.00
10644;DHT22;5370;50.132;8.626;2022-12-11T09:00:52;3.10;77.90
10644;DHT22;5370;50.132;8.626;2022-12-11T09:03:17;3.10;77.70
10644;DHT22;5370;50.132;8.626;2022-12-11T09:05:43;3.20;77.50
10644;DHT22;5370;50.132;8.626;2022-12-11T09:08:09;3.20;77.40
10644;DHT22;5370;50.132;8.626;2022-12-11T09:10:34;3.20;77.20
10644;DHT22;5370;50.132;8.626;2022-12-11T09:12:59;3.20;77.50
10644;DHT22;5370;50.132;8.626;2022-12-11T09:15:25;3.30;78.70
10644;DHT22;5370;50.132;8.626;2022-12-11T09:17:50;3.30;78.70
10644;DHT22;5370;50.132;8.626;2022-12-11T09:20:16;3.40;78.50
10644;DHT22;5370;50.132;8.626;2022-12-11T09:22:42;3.40;78.00
10644;DHT22;5370;50.132;8.626;2022-12-11T09:25:07;3.40;77.80
10644;DHT22;5370;50.132;8.626;2022-12-11T09:27:33;3.40;77.70
10644;DHT22;5370;50.132;8.626;2022-12-11T09:30:00;3.50;77.50
10644;DHT22;5370;50.132;8.626;2022-12-11T09:32:25;3.50;77.30
10644;DHT22;5370;50.132;8.626;2022-12-11T09:34:51;3.50;77.10
10644;DHT22;5370;50.132;8.626;2022-12-11T09:37:16;3.60;77.00
10644;DHT22;5370;50.132;8.626;2022-12-11T09:39:42;3.60;77.30
10644;DHT22;5370;50.132;8.626;2022-12-11T09:42:21;3.60;76.50
10644;DHT22;5370;50.132;8.626;2022-12-11T09:44:54;3.70;76.30
10644;DHT22;5370;50.132;8.626;2022-12-11T09:47:35;3.70;76.00
10644;DHT22;5370;50.132;8.626;2022-12-11T09:52:40;3.70;75.60
10644;DHT22;5370;50.132;8.626;2022-12-11T09:55:20;3.70;75.50
10644;DHT22;5370;50.132;8.626;2022-12-11T10:00:47;3.70;75.20
10644;DHT22;5370;50.132;8.626;2022-12-11T10:06:24;3.80;75.00
10644;DHT22;5370;50.132;8.626;2022-12-11T10:12:01;3.80;74.70
10644;DHT22;5370;50.132;8.626;2022-12-11T10:17:27;3.60;73.40
10644;DHT22;5370;50.132;8.626;2022-12-11T10:19:56;3.40;73.20
10644;DHT22;5370;50.132;8.626;2022-12-11T10:22:29;3.20;73.30
10644;DHT22;5370;50.132;8.626;2022-12-11T10:25:17;3.00;73.60
10644;DHT22;5370;50.132;8.626;2022-12-11T10:27:43;2.80;74.10
10644;DHT22;5370;50.132;8.626;2022-12-11T10:30:18;2.70;74.50
10644;DHT22;5370;50.132;8.626;2022-12-11T10:33:13;2.70;74.70
10644;DHT22;5370;50.132;8.626;2022-12-11T10:35:49;2.60;75.00
10644;DHT22;5370;50.132;8.626;2022-12-11T10:38:37;2.50;75.30
10644;DHT22;5370;50.132;8.626;2022-12-11T10:41:16;2.40;75.60
10644;DHT22;5370;50.132;8.626;2022-12-11T10:43:47;2.40;76.50
10644;DHT22;5370;50.132;8.626;2022-12-11T10:46:16;2.40;76.20
10644;DHT22;5370;50.132;8.626;2022-12-11T10:48:58;2.30;76.80
10644;DHT22;5370;50.132;8.626;2022-12-11T10:51:35;2.40;78.00
10644;DHT22;5370;50.132;8.626;2022-12-11T10:56:54;2.30;77.50
10644;DHT22;5370;50.132;8.626;2022-12-11T10:59:29;2.20;77.40
10644;DHT22;5370;50.132;8.626;2022-12-11T11:01:57;2.10;77.40
10644;DHT22;5370;50.132;8.626;2022-12-11T11:04:35;2.00;77.50
10644;DHT22;5370;50.132;8.626;2022-12-11T11:07:19;2.00;77.80
10644;DHT22;5370;50.132;8.626;2022-12-11T11:09:45;1.90;78.00
10644;DHT22;5370;50.132;8.626;2022-12-11T11:12:20;1.90;78.10
10644;DHT22;5370;50.132;8.626;2022-12-11T11:14:58;1.90;78.40
10644;DHT22;5370;50.132;8.626;2022-12-11T11:17:23;2.00;78.60
10644;DHT22;5370;50.132;8.626;2022-12-11T11:19:49;2.00;78.60
10644;DHT22;5370;50.132;8.626;2022-12-11T11:22:17;2.10;78.80
10644;DHT22;5370;50.132;8.626;2022-12-11T11:24:53;2.10;78.80
10644;DHT22;5370;50.132;8.626;2022-12-11T11:27:38;2.10;78.70
10644;DHT22;5370;50.132;8.626;2022-12-11T11:30:26;2.20;78.80
10644;DHT22;5370;50.132;8.626;2022-12-11T11:32:54;2.20;78.90
10644;DHT22;5370;50.132;8.626;2022-12-11T11:35:24;2.20;78.80
10644;DHT22;5370;50.132;8.626;2022-12-11T11:40:40;2.30;78.70
10644;DHT22;5370;50.132;8.626;2022-12-11T11:43:17;2.20;78.50
10644;DHT22;5370;50.132;8.626;2022-12-11T11:45:51;2.20;78.40
10644;DHT22;5370;50.132;8.626;2022-12-11T11:49:18;2.20;78.50
10644;DHT22;5370;50.132;8.626;2022-12-11T11:51:26;2.20;78.50
10644;DHT22;5370;50.132;8.626;2022-12-11T11:53:56;2.20;78.60
10644;DHT22;5370;50.132;8.626;2022-12-11T11:56:34;2.30;78.70
10644;DHT22;5370;50.132;8.626;2022-12-11T11:59:06;2.40;78.60
10644;DHT22;5370;50.132;8.626;2022-12-11T12:01:36;2.40;78.20
10644;DHT22;5370;50.132;8.626;2022-12-11T12:04:03;2.30;77.60
10644;DHT22;5370;50.132;8.626;2022-12-11T12:06:52;2.30;77.70
10644;DHT22;5370;50.132;8.626;2022-12-11T12:12:05;2.30;77.30
10644;DHT22;5370;50.132;8.626;2022-12-11T12:14:47;2.30;77.40
10644;DHT22;5370;50.132;8.626;2022-12-11T12:17:28;2.40;77.20
10644;DHT22;5370;50.132;8.626;2022-12-11T12:22:55;2.50;76.90
10644;DHT22;5370;50.132;8.626;2022-12-11T12:25:41;2.50;76.60
10644;DHT22;5370;50.132;8.626;2022-12-11T12:31:09;2.50;76.30
10644;DHT22;5370;50.132;8.626;2022-12-11T12:33:50;2.50;76.30
10644;DHT22;5370;50.132;8.626;2022-12-11T12:38:56;2.40;75.90
10644;DHT22;5370;50.132;8.626;2022-12-11T12:41:50;2.50;76.00
10644;DHT22;5370;50.132;8.626;2022-12-11T12:44:21;2.50;76.00
10644;DHT22;5370;50.132;8.626;2022-12-11T12:49:39;2.60;75.50
10644;DHT22;5370;50.132;8.626;2022-12-11T12:52:13;2.60;75.30
10644;DHT22;5370;50.132;8.626;2022-12-11T12:54:41;2.50;75.20
10644;DHT22;5370;50.132;8.626;2022-12-11T12:57:28;2.60;75.20
10644;DHT22;5370;50.132;8.626;2022-12-11T12:59:54;2.60;75.20
10644;DHT22;5370;50.132;8.626;2022-12-11T13:02:20;2.60;75.20
10644;DHT22;5370;50.132;8.626;2022-12-11T13:04:55;2.60;74.90
10644;DHT22;5370;50.132;8.626;2022-12-11T13:07:28;2.70;74.80
10644;DHT22;5370;50.132;8.626;2022-12-11T13:10:02;2.70;74.90
10644;DHT22;5370;50.132;8.626;2022-12-11T13:12:39;2.70;74.70
10644;DHT22;5370;50.132;8.626;2022-12-11T13:17:54;2.70;74.70
10644;DHT22;5370;50.132;8.626;2022-12-11T13:20:21;2.80;74.80
10644;DHT22;5370;50.132;8.626;2022-12-11T13:23:09;2.80;74.80
10644;DHT22;5370;50.132;8.626;2022-12-11T13:31:07;3.10;74.60
10644;DHT22;5370;50.132;8.626;2022-12-11T13:33:50;3.20;74.50
10644;DHT22;5370;50.132;8.626;2022-12-11T13:36:22;3.20;74.20
10644;DHT22;5370;50.132;8.626;2022-12-11T13:38:52;3.30;74.20
10644;DHT22;5370;50.132;8.626;2022-12-11T13:41:19;3.30;73.90
10644;DHT22;5370;50.132;8.626;2022-12-11T13:43:47;3.30;73.40
10644;DHT22;5370;50.132;8.626;2022-12-11T13:46:20;3.30;73.20
10644;DHT22;5370;50.132;8.626;2022-12-11T13:48:55;3.20;72.80
10644;DHT22;5370;50.132;8.626;2022-12-11T13:51:25;3.10;72.70
10644;DHT22;5370;50.132;8.626;2022-12-11T13:54:21;3.00;72.60
10644;DHT22;5370;50.132;8.626;2022-12-11T13:57:15;3.00;72.80
10644;DHT22;5370;50.132;8.626;2022-12-11T13:59:45;3.00;72.90
10644;DHT22;5370;50.132;8.626;2022-12-11T14:02:34;2.90;72.80
10644;DHT22;5370;50.132;8.626;2022-12-11T14:05:08;2.90;72.70
10644;DHT22;5370;50.132;8.626;2022-12-11T14:07:56;2.80;72.60
10644;DHT22;5370;50.132;8.626;2022-12-11T14:10:25;2.80;72.70
10644;DHT22;5370;50.132;8.626;2022-12-11T14:15:24;2.70;72.70
10644;DHT22;5370;50.132;8.626;2022-12-11T14:17:50;2.70;72.80
10644;DHT22;5370;50.132;8.626;2022-12-11T14:20:25;2.80;73.10
10644;DHT22;5370;50.132;8.626;2022-12-11T14:23:19;2.80;73.10
10644;DHT22;5370;50.132;8.626;2022-12-11T14:25:53;2.80;73.10
10644;DHT22;5370;50.132;8.626;2022-12-11T14:28:19;2.80;73.10
10644;DHT22;5370;50.132;8.626;2022-12-11T14:30:48;2.80;73.10
10644;DHT22;5370;50.132;8.626;2022-12-11T14:33:15;2.80;73.10
10644;DHT22;5370;50.132;8.626;2022-12-11T14:35:42;2.80;73.10
10644;DHT22;5370;50.132;8.626;2022-12-11T14:38:47;2.90;73.10
10644;DHT22;5370;50.132;8.626;2022-12-11T14:41:28;2.90;72.80
10644;DHT22;5370;50.132;8.626;2022-12-11T14:43:58;2.90;72.80
10644;DHT22;5370;50.132;8.626;2022-12-11T14:46:39;3.00;72.90
10644;DHT22;5370;50.132;8.626;2022-12-11T14:49:22;3.00;73.90
10644;DHT22;5370;50.132;8.626;2022-12-11T14:51:49;3.10;74.30
10644;DHT22;5370;50.132;8.626;2022-12-11T14:54:36;3.20;74.30
10644;DHT22;5370;50.132;8.626;2022-12-11T14:57:04;3.30;74.40
10644;DHT22;5370;50.132;8.626;2022-12-11T14:59:33;3.30;74.20
10644;DHT22;5370;50.132;8.626;2022-12-11T15:02:31;3.40;73.70
10644;DHT22;5370;50.132;8.626;2022-12-11T15:05:13;3.40;73.30
10644;DHT22;5370;50.132;8.626;2022-12-11T15:07:41;3.40;73.10
10644;DHT22;5370;50.132;8.626;2022-12-11T15:12:59;3.40;72.30
10644;DHT22;5370;50.132;8.626;2022-12-11T15:15:27;3.30;72.20
10644;DHT22;5370;50.132;8.626;2022-12-11T15:17:54;3.40;72.40
10644;DHT22;5370;50.132;8.626;2022-12-11T15:20:28;3.30;72.20
10644;DHT22;5370;50.132;8.626;2022-12-11T15:22:56;3.30;72.20
10644;DHT22;5370;50.132;8.626;2022-12-11T15:25:25;3.30;72.30
10644;DHT22;5370;50.132;8.626;2022-12-11T15:27:57;3.30;72.30
10644;DHT22;5370;50.132;8.626;2022-12-11T15:30:26;3.30;72.40
10644;DHT22;5370;50.132;8.626;2022-12-11T15:33:16;3.20;72.40
10644;DHT22;5370;50.132;8.626;2022-12-11T15:35:56;3.20;72.60
10644;DHT22;5370;50.132;8.626;2022-12-11T15:38:34;3.20;72.70
10644;DHT22;5370;50.132;8.626;2022-12-11T15:41:00;3.20;73.00
10644;DHT22;5370;50.132;8.626;2022-12-11T15:43:28;3.20;73.50
10644;DHT22;5370;50.132;8.626;2022-12-11T15:45:54;3.20;73.80
10644;DHT22;5370;50.132;8.626;2022-12-11T15:48:20;3.30;73.90
10644;DHT22;5370;50.132;8.626;2022-12-11T15:50:46;3.30;73.90
10644;DHT22;5370;50.132;8.626;2022-12-11T15:53:11;3.30;74.20
10644;DHT22;5370;50.132;8.626;2022-12-11T15:55:37;3.30;75.00
10644;DHT22;5370;50.132;8.626;2022-12-11T15:58:07;3.30;76.20
10644;DHT22;5370;50.132;8.626;2022-12-11T16:00:37;3.40;77.90
10644;DHT22;5370;50.132;8.626;2022-12-11T16:03:03;3.50;79.10
10644;DHT22;5370;50.132;8.626;2022-12-11T16:05:29;3.60;79.60
10644;DHT22;5370;50.132;8.626;2022-12-11T16:07:54;3.60;79.90
10644;DHT22;5370;50.132;8.626;2022-12-11T16:10:23;3.70;79.50
10644;DHT22;5370;50.132;8.626;2022-12-11T16:12:49;3.70;78.70
10644;DHT22;5370;50.132;8.626;2022-12-11T16:15:15;3.70;77.90
10644;DHT22;5370;50.132;8.626;2022-12-11T16:17:41;3.70;77.30
10644;DHT22;5370;50.132;8.626;2022-12-11T16:20:11;3.70;76.80
10644;DHT22;5370;50.132;8.626;2022-12-11T16:22:37;3.60;76.30
10644;DHT22;5370;50.132;8.626;2022-12-11T16:25:03;3.60;76.00
10644;DHT22;5370;50.132;8.626;2022-12-11T16:27:29;3.60;75.70
10644;DHT22;5370;50.132;8.626;2022-12-11T16:29:54;3.50;75.40
10644;DHT22;5370;50.132;8.626;2022-12-11T16:32:20;3.50;75.20
10644;DHT22;5370;50.132;8.626;2022-12-11T16:34:46;3.40;75.20
10644;DHT22;5370;50.132;8.626;2022-12-11T16:37:11;3.40;75.00
10644;DHT22;5370;50.132;8.626;2022-12-11T16:39:38;3.30;74.70
10644;DHT22;5370;50.132;8.626;2022-12-11T16:42:05;3.30;74.70
10644;DHT22;5370;50.132;8.626;2022-12-11T16:44:30;3.30;74.80
10644;DHT22;5370;50.132;8.626;2022-12-11T16:46:56;3.20;74.70
10644;DHT22;5370;50.132;8.626;2022-12-11T16:49:23;3.20;74.60
10644;DHT22;5370;50.132;8.626;2022-12-11T16:51:48;3.20;74.60
10644;DHT22;5370;50.132;8.626;2022-12-11T16:54:15;3.20;74.60
10644;DHT22;5370;50.132;8.626;2022-12-11T16:56:40;3.20;74.50
10644;DHT22;5370;50.132;8.626;2022-12-11T16:59:06;3.20;74.60
10644;DHT22;5370;50.132;8.626;2022-12-11T17:01:32;3.20;74.50
10644;DHT22;5370;50.132;8.626;2022-12-11T17:03:58;3.20;74.20
10644;DHT22;5370;50.132;8.626;2022-12-11T17:06:24;3.20;74.00
10644;DHT22;5370;50.132;8.626;2022-12-11T17:08:50;3.10;73.90
10644;DHT22;5370;50.132;8.626;2022-12-11T17:11:18;3.10;73.90
10644;DHT22;5370;50.132;8.626;2022-12-11T17:13:44;3.10;73.90
10644;DHT22;5370;50.132;8.626;2022-12-11T17:16:12;3.00;73.90
10644;DHT22;5370;50.132;8.626;2022-12-11T17:18:39;3.00;73.90
10644;DHT22;5370;50.132;8.626;2022-12-11T17:21:09;3.00;74.00
10644;DHT22;5370;50.132;8.626;2022-12-11T17:23:35;3.00;74.10
10644;DHT22;5370;50.132;8.626;2022-12-11T17:26:01;3.00;74.20
10644;DHT22;5370;50.132;8.626;2022-12-11T17:28:28;3.00;74.20
10644;DHT22;5370;50.132;8.626;2022-12-11T17:30:54;3.00;75.00
10644;DHT22;5370;50.132;8.626;2022-12-11T17:33:19;3.00;74.30